Summitville, Colorado
Current Conditions -  °F | °C
As of 11:10 AM on Thursday 18 Dec 2014 (Local Time) from KRCV Reporting Station
Scattered Clouds Scattered Clouds  
Wind Chill: -6°   Ceiling: Unl
Heat Index: -3°   Visibility: 10mi
Dew Point: -7°   Wind: 6mph
Humidity: 74%   Direction: 60°ENE
Pressure: 30.11"   Gusts: NA
Location:  37.6359°N, 106.449°W
Report Text: KRCV 181810Z AUTO 06005KT 10SM SCT012 SCT019 M03/M07 A3011 RMK AO2 T10261066
Loading
Personal Weather Stations






























Interactive Weather Map New forecast layout! Learn more

10-Day Weather Forecast

Advertisements
Track Severe Weather on mobile